Terminal Aerodrome Forecast
Issued by NWS Mt. Holly, NJ

Home | Current Version | Previous Version | Text Only | Print | Product List | Glossary On
Versions: 1 2 3 4 5 6 7 8 9 10 11 12 13 14 15 16 17
000
FTUS41 KPHI 222328
TAFTTN
TAF
KTTN 222328Z 2300/2324 22010KT P6SM SCT040
     FM230200 22010KT P6SM BKN040
      TEMPO 2302/2304 3SM TSRA BR OVC020CB
     FM230400 25006KT 4SM -SHRA BR SCT020 OVC040
     FM230700 27004KT 4SM BR BKN040
     FM231100 32006KT P6SM BKN050
     FM231700 32006KT P6SM SCT050=

USA.gov is the U.S. government's official web portal to all federal, state and local government web resources and services.